Rondeau, Canada
Current Conditions -  °F | °C
As of 5:00 PM on Monday 22 Dec 2014 (Local Time) from CYCK Reporting Station
Clear Clear  
Wind Chill: 25°   Ceiling: Unl
Heat Index: 34°   Visibility: 9mi
Dew Point: 30°   Wind: 12mph
Humidity: 87%   Direction: 110°ESE
Pressure: 29.98"   Gusts: NA
Location:  42.28°N, 81.87°W
Report Text: CYCK 222200Z AUTO 11010KT 9SM CLR 01/M01 A2998 RMK SLP158
Loading
Personal Weather Stations






























Interactive Weather Map New forecast layout! Learn more

10-Day Weather Forecast

Advertisements
Track Severe Weather on mobile